2NE0 weather

Johnson Lake Airport
Elwood, Nebraska, United States

Public forecast

Using degrees Fahrenheit for public forecast. Weather courtesy of forecast.io.

Closest aviation weather report (METAR) to Johnson Lake Airport

Closest report is Jim Kelly Field, 6.2 nm (11.5 km) NNE. Retrieved 2019/10/24 01:35 UTC (0 seconds ago):

KLXN 240135Z AUTO 36015G20KT 10SM BKN022 02/M02 A3025 RMK AO2 T00181020

Closest aviation forecast (TAF) to Johnson Lake Airport

Closest forecast is Kearney Regional Airport, 37.7 nm (69.8 km) E. Retrieved 2019-10-24 00:54 UTC (16 minutes ago):

TAF KEAR 232352Z 2400/2424 35018G23KT P6SM SCT015 SCT180 FM240200 35017G22KT P6SM BKN020 FM240400 35017KT P6SM BKN020 FM240600 35015KT P6SM BKN035 FM240900 35011KT P6SM SCT090 FM242200 02011KT P6SM FEW250